Time;durP1;ratioP1;P1;durP2;ratioP2;P2;SDS_P1;SDS_P2;PMS_P1;PMS_P2;Temp;Humidity;BMP_temperature;BMP_pressure;BME280_temperature;BME280_humidity;BME280_pressure;Samples;Min_cycle;Max_cycle;Signal;HPM_P1;HPM_P2
2021/01/08 00:00:33;;;;;;;24.52;12.43;;;1.40;99.90;;;;;;484743;245;27530;-70
2021/01/08 00:02:35;;;;;;;19.90;11.63;;;1.40;99.90;;;;;;484773;245;27522;-70
2021/01/08 00:04:36;;;;;;;18.77;11.98;;;1.40;99.90;;;;;;484778;245;27422;-70
2021/01/08 00:06:37;;;;;;;17.00;10.48;;;1.40;99.90;;;;;;484790;245;27507;-71
2021/01/08 00:08:38;;;;;;;18.87;11.85;;;1.40;99.90;;;;;;484769;245;27486;-70
2021/01/08 00:10:40;;;;;;;16.55;9.75;;;1.40;99.90;;;;;;484725;245;27435;-70
2021/01/08 00:12:41;;;;;;;17.05;10.52;;;1.40;99.90;;;;;;484863;244;27962;-70
2021/01/08 00:14:42;;;;;;;16.65;12.45;;;1.30;99.90;;;;;;484815;245;27971;-71
2021/01/08 00:16:43;;;;;;;16.23;11.30;;;1.30;99.90;;;;;;484793;245;28608;-70
2021/01/08 00:18:45;;;;;;;23.77;15.52;;;1.30;99.90;;;;;;484752;245;27430;-71
2021/01/08 00:20:46;;;;;;;28.67;20.90;;;1.30;99.90;;;;;;484664;245;27439;-71
2021/01/08 00:22:47;;;;;;;22.85;14.87;;;1.40;99.90;;;;;;484748;245;27406;-70
2021/01/08 00:24:48;;;;;;;26.80;19.17;;;1.40;99.90;;;;;;484814;245;27435;-71
2021/01/08 00:26:50;;;;;;;20.73;13.88;;;1.40;99.90;;;;;;484788;245;27396;-69
2021/01/08 00:28:51;;;;;;;23.58;12.10;;;1.50;99.90;;;;;;484758;245;28019;-71
2021/01/08 00:30:52;;;;;;;17.75;11.27;;;1.40;99.90;;;;;;484720;245;29072;-71
2021/01/08 00:32:53;;;;;;;17.40;11.27;;;1.40;99.90;;;;;;484772;245;27461;-70
2021/01/08 00:34:55;;;;;;;27.55;12.60;;;1.40;99.90;;;;;;484798;245;27552;-71
2021/01/08 00:36:56;;;;;;;17.05;9.48;;;1.40;99.90;;;;;;484277;245;27750;-70
2021/01/08 00:38:57;;;;;;;18.52;10.50;;;1.40;99.90;;;;;;484163;245;27514;-70
2021/01/08 00:40:58;;;;;;;16.42;10.85;;;1.30;99.90;;;;;;484205;245;27641;-71
2021/01/08 00:43:00;;;;;;;23.52;10.52;;;1.40;99.90;;;;;;484494;245;27419;-70
2021/01/08 00:45:01;;;;;;;20.42;10.18;;;1.40;99.90;;;;;;484887;245;27979;-70
2021/01/08 00:47:02;;;;;;;18.42;10.90;;;1.40;99.90;;;;;;484952;245;27954;-70
2021/01/08 00:49:03;;;;;;;16.08;10.75;;;1.40;99.90;;;;;;484897;245;27422;-70
2021/01/08 00:51:05;;;;;;;18.65;9.90;;;1.40;99.90;;;;;;484850;245;27410;-72
2021/01/08 00:53:06;;;;;;;19.40;10.77;;;1.40;99.90;;;;;;484877;245;27371;-70
2021/01/08 00:55:07;;;;;;;19.33;10.82;;;1.40;99.90;;;;;;484851;245;27408;-70
2021/01/08 00:57:08;;;;;;;15.85;9.73;;;1.40;99.90;;;;;;484807;245;27407;-71
2021/01/08 00:59:10;;;;;;;15.57;10.50;;;1.40;99.90;;;;;;484804;245;27416;-70
2021/01/08 01:01:11;;;;;;;15.60;9.90;;;1.40;99.90;;;;;;484727;245;28036;-72
2021/01/08 01:03:12;;;;;;;17.67;10.88;;;1.40;99.90;;;;;;484818;245;27909;-70
2021/01/08 01:05:14;;;;;;;15.98;10.00;;;1.40;99.90;;;;;;484789;245;27991;-70
2021/01/08 01:07:15;;;;;;;14.87;9.93;;;1.40;99.90;;;;;;484773;245;27411;-71
2021/01/08 01:09:16;;;;;;;15.50;10.18;;;1.40;99.90;;;;;;484726;245;27431;-71
2021/01/08 01:11:17;;;;;;;16.23;10.02;;;1.40;99.90;;;;;;484667;245;27519;-70
2021/01/08 01:13:19;;;;;;;24.08;11.57;;;1.40;99.90;;;;;;484784;245;27390;-70
2021/01/08 01:15:20;;;;;;;18.40;10.15;;;1.30;99.90;;;;;;484769;245;27415;-70
2021/01/08 01:17:21;;;;;;;14.75;9.50;;;1.40;99.90;;;;;;484776;245;28004;-70
2021/01/08 01:19:22;;;;;;;16.73;8.98;;;1.40;99.90;;;;;;485103;245;27916;-70
2021/01/08 01:21:24;;;;;;;16.05;9.30;;;1.40;99.90;;;;;;485042;245;28277;-70
2021/01/08 01:23:25;;;;;;;13.98;9.88;;;1.40;99.90;;;;;;484735;245;27411;-70
2021/01/08 01:25:26;;;;;;;15.63;10.30;;;1.40;99.90;;;;;;484777;245;27503;-70
2021/01/08 01:27:27;;;;;;;15.25;9.57;;;1.40;99.90;;;;;;484779;245;27415;-71
2021/01/08 01:29:29;;;;;;;16.65;11.45;;;1.40;99.90;;;;;;484747;245;27423;-70
2021/01/08 01:31:30;;;;;;;16.10;10.35;;;1.40;99.90;;;;;;484659;245;27416;-70
2021/01/08 01:33:31;;;;;;;18.40;11.15;;;1.40;99.90;;;;;;484825;245;27427;-72
2021/01/08 01:35:32;;;;;;;16.37;9.95;;;1.50;99.90;;;;;;484818;245;28058;-71
2021/01/08 01:37:34;;;;;;;15.63;10.43;;;1.50;99.90;;;;;;484858;245;27894;-70
2021/01/08 01:39:35;;;;;;;15.32;9.73;;;1.50;99.90;;;;;;484781;245;27992;-71
2021/01/08 01:41:36;;;;;;;17.00;10.82;;;1.40;99.90;;;;;;484769;245;27467;-70
2021/01/08 01:43:37;;;;;;;18.30;11.73;;;1.40;99.90;;;;;;484851;245;27605;-70
2021/01/08 01:45:39;;;;;;;19.40;11.75;;;1.40;99.90;;;;;;484782;245;27762;-71
2021/01/08 01:47:40;;;;;;;17.87;10.63;;;1.40;99.90;;;;;;484837;245;27533;-70
2021/01/08 01:49:41;;;;;;;18.15;11.77;;;1.30;99.90;;;;;;484798;245;27435;-71
2021/01/08 01:51:42;;;;;;;18.90;10.30;;;1.40;99.90;;;;;;484728;245;27913;-70
2021/01/08 01:53:44;;;;;;;16.80;11.05;;;1.40;99.90;;;;;;484798;245;28085;-70
2021/01/08 01:55:45;;;;;;;19.25;10.85;;;1.40;99.90;;;;;;484787;245;27415;-72
2021/01/08 01:57:46;;;;;;;15.68;10.55;;;1.30;99.90;;;;;;484803;243;27428;-70
2021/01/08 01:59:47;;;;;;;18.23;11.57;;;1.30;99.90;;;;;;484807;245;27419;-71
2021/01/08 02:01:49;;;;;;;21.00;12.25;;;1.30;99.90;;;;;;484822;245;27551;-70
2021/01/08 02:03:50;;;;;;;19.52;12.00;;;1.40;99.90;;;;;;484923;245;27513;-70
2021/01/08 02:05:51;;;;;;;19.60;11.68;;;1.30;99.90;;;;;;484946;245;27495;-70
2021/01/08 02:07:52;;;;;;;18.42;10.70;;;1.30;99.90;;;;;;484957;245;27883;-70
2021/01/08 02:09:54;;;;;;;22.50;12.88;;;1.30;99.90;;;;;;484931;245;28107;-70
2021/01/08 02:11:55;;;;;;;17.10;11.50;;;1.30;99.90;;;;;;484633;245;27399;-70
2021/01/08 02:13:56;;;;;;;21.15;12.15;;;1.30;99.90;;;;;;484885;245;27447;-70
2021/01/08 02:15:57;;;;;;;18.27;11.88;;;1.40;99.90;;;;;;484824;245;27426;-70
2021/01/08 02:17:59;;;;;;;21.10;12.80;;;1.30;99.90;;;;;;484958;245;27480;-70
2021/01/08 02:20:00;;;;;;;16.48;11.15;;;1.30;99.90;;;;;;484847;245;27407;-70
2021/01/08 02:22:01;;;;;;;19.37;11.75;;;1.30;99.90;;;;;;484898;245;27484;-70
2021/01/08 02:24:03;;;;;;;21.70;12.25;;;1.40;99.90;;;;;;484863;245;28000;-70
2021/01/08 02:26:04;;;;;;;19.45;11.65;;;1.40;99.90;;;;;;484846;245;28057;-71
2021/01/08 02:28:08;;;;;;;17.37;11.15;;;1.40;99.90;;;;;;484818;245;27444;-70
2021/01/08 02:30:06;;;;;;;21.12;12.35;;;1.40;99.90;;;;;;484532;245;27411;-72
2021/01/08 02:32:08;;;;;;;21.75;12.02;;;1.40;99.90;;;;;;484701;245;27388;-70
2021/01/08 02:34:09;;;;;;;20.67;11.95;;;1.40;99.90;;;;;;484699;245;27529;-71
2021/01/08 02:36:10;;;;;;;22.27;11.60;;;1.40;99.90;;;;;;484779;245;27503;-71
2021/01/08 02:38:11;;;;;;;18.52;11.32;;;1.40;99.90;;;;;;484733;245;27884;-70
2021/01/08 02:40:13;;;;;;;16.98;10.45;;;1.30;99.90;;;;;;484668;245;28022;-71
2021/01/08 02:42:14;;;;;;;19.52;11.27;;;1.40;99.90;;;;;;484746;245;27413;-72
2021/01/08 02:44:15;;;;;;;20.15;11.38;;;1.30;99.90;;;;;;484763;245;27421;-71
2021/01/08 02:46:16;;;;;;;21.83;12.63;;;1.30;99.90;;;;;;484768;245;27427;-70
2021/01/08 02:48:18;;;;;;;22.10;13.02;;;1.30;99.90;;;;;;484759;245;27518;-71
2021/01/08 02:50:19;;;;;;;19.00;11.43;;;1.30;99.90;;;;;;484718;245;27852;-71
2021/01/08 02:52:20;;;;;;;18.00;12.27;;;1.30;99.90;;;;;;484783;245;27530;-72
2021/01/08 02:54:21;;;;;;;20.83;12.40;;;1.40;99.90;;;;;;484764;245;27902;-70
2021/01/08 02:56:23;;;;;;;20.92;13.15;;;1.30;99.90;;;;;;484779;245;27890;-70
2021/01/08 02:58:24;;;;;;;19.80;12.35;;;1.30;99.90;;;;;;484764;245;27751;-70
2021/01/08 03:00:25;;;;;;;21.77;11.75;;;1.30;99.90;;;;;;484757;245;27466;-70
2021/01/08 03:02:26;;;;;;;19.17;11.93;;;1.30;99.90;;;;;;484782;245;27542;-71
2021/01/08 03:04:28;;;;;;;16.55;10.57;;;1.30;99.90;;;;;;484844;245;27466;-71
2021/01/08 03:06:29;;;;;;;18.05;11.45;;;1.40;99.90;;;;;;484878;245;27406;-70
2021/01/08 03:08:30;;;;;;;21.67;11.65;;;1.40;99.90;;;;;;484793;245;27427;-71
2021/01/08 03:10:31;;;;;;;16.77;11.00;;;1.30;99.90;;;;;;484709;245;28001;-70
2021/01/08 03:12:33;;;;;;;19.35;11.65;;;1.40;99.90;;;;;;484785;245;27891;-70
2021/01/08 03:14:34;;;;;;;17.62;11.27;;;1.40;99.90;;;;;;484760;245;27415;-72
2021/01/08 03:16:35;;;;;;;25.23;11.43;;;1.40;99.90;;;;;;484766;245;27505;-70
2021/01/08 03:18:36;;;;;;;15.65;10.65;;;1.40;99.90;;;;;;484811;245;27419;-71
2021/01/08 03:20:38;;;;;;;16.20;10.57;;;1.40;99.90;;;;;;484724;245;27498;-70
2021/01/08 03:22:39;;;;;;;14.43;10.18;;;1.30;99.90;;;;;;484884;245;27422;-70
2021/01/08 03:24:40;;;;;;;17.35;11.43;;;1.30;99.90;;;;;;484890;245;28188;-71
2021/01/08 03:26:41;;;;;;;17.35;11.30;;;1.30;99.90;;;;;;484951;245;27918;-70
2021/01/08 03:28:43;;;;;;;15.27;10.45;;;1.20;99.90;;;;;;484935;245;27887;-71
2021/01/08 03:30:44;;;;;;;16.60;11.27;;;1.20;99.90;;;;;;484901;245;27496;-70
2021/01/08 03:32:45;;;;;;;15.73;10.10;;;1.30;99.90;;;;;;484941;245;27490;-70
2021/01/08 03:34:46;;;;;;;16.23;10.75;;;1.30;99.90;;;;;;484822;245;27411;-72
2021/01/08 03:36:48;;;;;;;18.75;11.23;;;1.40;99.90;;;;;;484437;245;27566;-70
2021/01/08 03:38:49;;;;;;;16.08;9.73;;;1.30;99.90;;;;;;484784;245;27423;-71
2021/01/08 03:40:50;;;;;;;22.00;10.95;;;1.20;99.90;;;;;;484884;245;27862;-70
2021/01/08 03:42:51;;;;;;;17.30;10.52;;;1.20;99.90;;;;;;484861;245;28005;-70
2021/01/08 03:44:53;;;;;;;17.20;11.25;;;1.30;99.90;;;;;;484860;245;28276;-72
2021/01/08 03:46:54;;;;;;;15.77;10.10;;;1.30;99.90;;;;;;484812;245;27368;-70
2021/01/08 03:48:55;;;;;;;13.50;9.95;;;1.30;99.90;;;;;;484794;245;27423;-70
2021/01/08 03:50:57;;;;;;;19.98;11.23;;;1.30;99.90;;;;;;484720;242;27470;-70
2021/01/08 03:52:58;;;;;;;10.38;8.38;;;1.30;99.90;;;;;;484817;245;27486;-70
2021/01/08 03:54:59;;;;;;;10.93;8.32;;;1.30;99.90;;;;;;484781;245;27426;-70
2021/01/08 03:57:00;;;;;;;14.60;10.15;;;1.30;99.90;;;;;;484798;245;27423;-70
2021/01/08 03:59:02;;;;;;;16.42;9.68;;;1.30;99.90;;;;;;484797;245;27920;-72
2021/01/08 04:01:03;;;;;;;15.82;10.00;;;1.30;99.90;;;;;;484734;245;27970;-71
2021/01/08 04:03:04;;;;;;;14.57;9.05;;;1.30;99.90;;;;;;484777;245;27434;-70
2021/01/08 04:05:05;;;;;;;13.25;9.82;;;1.30;99.90;;;;;;484785;245;27431;-70
2021/01/08 04:07:07;;;;;;;16.15;9.98;;;1.30;99.90;;;;;;484737;245;27399;-70
2021/01/08 04:09:08;;;;;;;12.48;9.00;;;1.30;99.90;;;;;;484780;245;27415;-72
2021/01/08 04:11:09;;;;;;;13.85;8.60;;;1.40;99.90;;;;;;484713;245;27440;-72
2021/01/08 04:13:10;;;;;;;15.40;9.27;;;1.30;99.90;;;;;;484762;245;27527;-70
2021/01/08 04:15:12;;;;;;;12.07;8.55;;;1.30;99.90;;;;;;484749;245;27449;-70
2021/01/08 04:17:13;;;;;;;11.73;8.35;;;1.40;99.90;;;;;;484752;245;27879;-70
2021/01/08 04:19:14;;;;;;;16.95;9.00;;;1.30;99.90;;;;;;484788;245;28058;-70
2021/01/08 04:21:15;;;;;;;17.17;8.73;;;1.40;99.90;;;;;;484710;245;27898;-71
2021/01/08 04:23:17;;;;;;;14.82;9.65;;;1.30;99.90;;;;;;484760;245;27426;-71
2021/01/08 04:25:18;;;;;;;11.50;8.27;;;1.30;99.90;;;;;;484770;245;27498;-71
2021/01/08 04:27:19;;;;;;;13.07;8.45;;;1.30;99.90;;;;;;484748;245;27431;-70
2021/01/08 04:29:20;;;;;;;13.65;9.27;;;1.30;99.90;;;;;;484835;245;27391;-70
2021/01/08 04:31:22;;;;;;;14.38;9.60;;;1.30;99.90;;;;;;484850;245;27522;-70
2021/01/08 04:33:23;;;;;;;12.88;8.57;;;1.20;99.90;;;;;;484858;245;27419;-70
2021/01/08 04:35:24;;;;;;;12.48;8.93;;;1.20;99.90;;;;;;484774;245;27550;-70
2021/01/08 04:37:25;;;;;;;13.18;9.20;;;1.10;99.90;;;;;;484783;245;27896;-71
2021/01/08 04:39:27;;;;;;;13.18;8.88;;;1.20;99.90;;;;;;484779;245;28725;-70
2021/01/08 04:41:28;;;;;;;13.85;9.77;;;1.20;99.90;;;;;;484695;245;27925;-70
2021/01/08 04:43:29;;;;;;;12.95;9.07;;;1.20;99.90;;;;;;484769;245;27490;-71
2021/01/08 04:45:30;;;;;;;13.77;9.60;;;1.20;99.90;;;;;;484790;245;27427;-70
2021/01/08 04:47:32;;;;;;;16.52;9.90;;;1.10;99.90;;;;;;484786;245;27419;-70
2021/01/08 04:49:33;;;;;;;12.77;9.35;;;1.20;99.90;;;;;;484794;245;27383;-70
2021/01/08 04:51:34;;;;;;;11.55;8.23;;;1.20;99.90;;;;;;484763;245;27423;-70
2021/01/08 04:53:35;;;;;;;12.07;8.90;;;1.30;99.90;;;;;;484867;245;27464;-72
2021/01/08 04:55:37;;;;;;;12.75;8.10;;;1.20;99.90;;;;;;484917;245;27379;-70
2021/01/08 04:57:38;;;;;;;12.98;8.82;;;1.20;99.90;;;;;;484965;245;27885;-71
2021/01/08 04:59:39;;;;;;;11.70;8.32;;;1.20;99.90;;;;;;484980;245;27911;-70
2021/01/08 05:01:40;;;;;;;12.10;8.75;;;1.30;99.90;;;;;;484930;245;28046;-70
2021/01/08 05:03:42;;;;;;;11.43;8.40;;;1.30;99.90;;;;;;484986;245;27498;-72
2021/01/08 05:05:43;;;;;;;12.65;8.88;;;1.20;99.90;;;;;;484961;245;27395;-70
2021/01/08 05:07:44;;;;;;;10.93;7.87;;;1.30;99.90;;;;;;484758;245;27507;-70
2021/01/08 05:09:45;;;;;;;14.93;8.68;;;1.20;99.90;;;;;;484385;245;27479;-70
2021/01/08 05:11:47;;;;;;;13.73;8.55;;;1.20;99.90;;;;;;484656;245;27407;-70
2021/01/08 05:13:48;;;;;;;15.20;9.18;;;1.20;99.90;;;;;;484968;245;27435;-71
2021/01/08 05:15:49;;;;;;;8.77;7.15;;;1.20;99.90;;;;;;484852;245;27490;-70
2021/01/08 05:17:50;;;;;;;10.57;8.27;;;1.30;99.90;;;;;;484873;245;27876;-71
2021/01/08 05:19:52;;;;;;;12.35;8.50;;;1.30;99.90;;;;;;484811;245;28665;-70
2021/01/08 05:21:53;;;;;;;11.45;8.95;;;1.30;99.90;;;;;;484714;245;27909;-70
2021/01/08 05:23:54;;;;;;;11.12;8.35;;;1.40;99.90;;;;;;484791;245;27426;-70
2021/01/08 05:25:55;;;;;;;11.48;8.75;;;1.30;99.90;;;;;;484823;245;27378;-69
2021/01/08 05:27:57;;;;;;;13.80;9.30;;;1.20;99.90;;;;;;484804;245;27434;-71
2021/01/08 05:29:58;;;;;;;15.75;9.20;;;1.30;99.90;;;;;;484779;245;27897;-71
2021/01/08 05:31:59;;;;;;;13.32;9.75;;;1.30;99.90;;;;;;484745;245;27502;-70
2021/01/08 05:34:00;;;;;;;10.77;8.30;;;1.20;99.90;;;;;;484803;245;27428;-70
2021/01/08 05:36:02;;;;;;;11.68;8.77;;;1.20;99.90;;;;;;484813;245;27423;-70
2021/01/08 05:38:03;;;;;;;12.05;8.70;;;1.20;99.90;;;;;;484769;245;28022;-70
2021/01/08 05:40:04;;;;;;;9.23;7.68;;;1.20;99.90;;;;;;484740;245;27987;-70
2021/01/08 05:42:05;;;;;;;11.50;8.52;;;1.20;99.90;;;;;;484769;245;27894;-70
2021/01/08 05:44:07;;;;;;;9.70;7.78;;;1.20;99.90;;;;;;484726;245;27424;-70
2021/01/08 05:46:08;;;;;;;9.38;8.05;;;1.20;99.90;;;;;;484818;245;27499;-70
2021/01/08 05:48:09;;;;;;;10.52;8.40;;;1.20;99.90;;;;;;484775;245;27423;-71
2021/01/08 05:50:10;;;;;;;12.37;8.98;;;1.20;99.90;;;;;;484708;245;27427;-70
2021/01/08 05:52:12;;;;;;;13.02;9.18;;;1.20;99.90;;;;;;484774;245;27424;-71
2021/01/08 05:54:13;;;;;;;11.05;8.20;;;1.20;99.90;;;;;;484752;245;27419;-70
2021/01/08 05:56:14;;;;;;;10.52;8.35;;;1.20;99.90;;;;;;484763;245;27758;-71
2021/01/08 05:58:15;;;;;;;10.85;8.40;;;1.30;99.90;;;;;;484797;245;27522;-71
2021/01/08 06:00:17;;;;;;;11.95;7.28;;;1.20;99.90;;;;;;484738;245;28022;-70
2021/01/08 06:02:18;;;;;;;11.23;8.35;;;1.30;99.90;;;;;;484778;245;27919;-71
2021/01/08 06:04:19;;;;;;;10.88;7.70;;;1.30;99.90;;;;;;484805;245;27868;-70
2021/01/08 06:06:20;;;;;;;11.48;8.07;;;1.30;99.90;;;;;;484838;245;27582;-71
2021/01/08 06:08:22;;;;;;;10.80;8.13;;;1.30;99.90;;;;;;484879;245;27407;-71
2021/01/08 06:10:23;;;;;;;10.10;8.32;;;1.20;99.90;;;;;;484853;245;27423;-70
2021/01/08 06:12:24;;;;;;;12.50;9.10;;;1.20;99.90;;;;;;484849;245;27509;-70
2021/01/08 06:14:26;;;;;;;11.00;8.18;;;1.20;99.90;;;;;;484803;245;27495;-70
2021/01/08 06:16:27;;;;;;;10.52;8.57;;;1.20;99.90;;;;;;484783;245;27415;-70
2021/01/08 06:18:28;;;;;;;12.57;8.57;;;1.10;99.90;;;;;;484787;245;27460;-70
2021/01/08 06:20:29;;;;;;;12.02;8.20;;;1.10;99.90;;;;;;484754;245;27871;-70
2021/01/08 06:22:31;;;;;;;12.73;8.75;;;1.10;99.90;;;;;;484809;245;28090;-72
2021/01/08 06:24:32;;;;;;;10.85;7.93;;;1.10;99.90;;;;;;484833;245;28994;-70
2021/01/08 06:26:33;;;;;;;11.02;8.15;;;1.10;99.90;;;;;;484862;245;27424;-70
2021/01/08 06:28:34;;;;;;;14.48;9.15;;;1.10;99.90;;;;;;484917;245;27411;-70
2021/01/08 06:30:36;;;;;;;13.25;8.23;;;1.10;99.90;;;;;;484893;245;27567;-70
2021/01/08 06:32:37;;;;;;;13.30;9.85;;;1.20;99.90;;;;;;484967;245;27415;-72
2021/01/08 06:34:38;;;;;;;14.02;8.98;;;1.20;99.90;;;;;;484977;245;27367;-70
2021/01/08 06:36:39;;;;;;;11.65;8.20;;;1.10;99.90;;;;;;484975;245;27498;-70
2021/01/08 06:38:41;;;;;;;13.65;8.25;;;1.10;99.90;;;;;;484928;245;27482;-70
2021/01/08 06:40:42;;;;;;;11.20;8.60;;;1.10;99.90;;;;;;484939;245;27878;-70
2021/01/08 06:42:44;;;;;;;13.40;9.40;;;1.00;99.90;;;;;;484951;245;27984;-70
2021/01/08 06:44:44;;;;;;;12.15;8.35;;;1.00;99.90;;;;;;484830;245;27922;-70
2021/01/08 06:46:46;;;;;;;10.38;7.82;;;1.00;99.90;;;;;;484386;245;27538;-70
2021/01/08 06:48:47;;;;;;;16.40;9.45;;;1.00;99.90;;;;;;484699;245;27497;-72
2021/01/08 06:50:48;;;;;;;13.62;8.70;;;1.00;99.90;;;;;;484889;245;27478;-70
2021/01/08 06:52:49;;;;;;;11.95;8.45;;;1.00;99.90;;;;;;484850;245;27415;-70
2021/01/08 06:54:51;;;;;;;11.85;8.55;;;1.00;99.90;;;;;;484829;245;27470;-70
2021/01/08 06:56:52;;;;;;;12.55;9.25;;;1.10;99.90;;;;;;484805;245;27621;-70
2021/01/08 06:58:53;;;;;;;12.02;9.02;;;1.10;99.90;;;;;;484782;245;27426;-71
2021/01/08 07:00:54;;;;;;;15.10;9.30;;;1.10;99.90;;;;;;484715;245;27851;-70
2021/01/08 07:02:56;;;;;;;12.23;9.05;;;1.10;99.90;;;;;;484774;245;27925;-71
2021/01/08 07:04:57;;;;;;;15.63;9.30;;;1.10;99.90;;;;;;484799;245;28041;-69
2021/01/08 07:06:58;;;;;;;11.77;8.57;;;1.00;99.90;;;;;;484784;245;27429;-70
2021/01/08 07:08:59;;;;;;;15.88;10.13;;;1.00;99.90;;;;;;484774;245;27418;-71
2021/01/08 07:11:01;;;;;;;14.32;9.85;;;1.10;99.90;;;;;;484761;245;27497;-70
2021/01/08 07:13:02;;;;;;;11.65;8.95;;;1.10;99.90;;;;;;484829;245;27517;-71
2021/01/08 07:15:03;;;;;;;14.07;8.90;;;1.10;99.90;;;;;;484783;245;27486;-71
2021/01/08 07:17:04;;;;;;;14.45;9.38;;;1.10;99.90;;;;;;484777;245;27418;-70
2021/01/08 07:19:06;;;;;;;11.90;8.77;;;1.10;99.90;;;;;;484778;245;27427;-70
2021/01/08 07:21:07;;;;;;;11.35;8.75;;;1.20;99.90;;;;;;484768;245;28009;-70
2021/01/08 07:23:08;;;;;;;13.52;9.23;;;1.20;99.90;;;;;;484780;245;27986;-70
2021/01/08 07:25:09;;;;;;;13.80;7.90;;;1.20;99.90;;;;;;484767;245;27418;-72
2021/01/08 07:27:11;;;;;;;13.68;9.48;;;1.10;99.90;;;;;;484748;245;27415;-71
2021/01/08 07:29:12;;;;;;;18.77;9.50;;;1.00;99.90;;;;;;484761;245;27431;-70
2021/01/08 07:31:13;;;;;;;13.62;9.30;;;1.00;99.90;;;;;;484718;245;27423;-70
2021/01/08 07:33:14;;;;;;;13.50;9.45;;;1.00;99.90;;;;;;484751;245;27423;-70
2021/01/08 07:35:16;;;;;;;12.80;8.93;;;1.00;99.90;;;;;;484755;245;27438;-71
2021/01/08 07:37:17;;;;;;;13.45;9.50;;;1.00;99.90;;;;;;484763;245;27427;-70
2021/01/08 07:39:18;;;;;;;14.73;10.38;;;1.10;99.90;;;;;;484795;245;27535;-70
2021/01/08 07:41:19;;;;;;;15.30;10.10;;;1.00;99.90;;;;;;484699;245;28599;-70
2021/01/08 07:43:21;;;;;;;16.60;10.07;;;1.10;99.90;;;;;;484717;245;28069;-71
2021/01/08 07:45:22;;;;;;;13.93;9.30;;;1.10;99.90;;;;;;484720;245;27522;-70
2021/01/08 07:47:23;;;;;;;13.85;9.10;;;1.10;99.90;;;;;;484731;245;27517;-70
2021/01/08 07:49:24;;;;;;;12.80;9.52;;;1.10;99.90;;;;;;484810;245;27442;-70
2021/01/08 07:51:26;;;;;;;13.73;9.88;;;1.10;99.90;;;;;;484738;245;27770;-72
2021/01/08 07:53:27;;;;;;;13.20;10.25;;;1.10;99.90;;;;;;484663;245;27457;-71
2021/01/08 07:55:28;;;;;;;19.60;10.27;;;1.10;99.90;;;;;;484717;245;28013;-70
2021/01/08 07:57:29;;;;;;;14.60;10.25;;;1.10;99.90;;;;;;484689;245;27983;-71
2021/01/08 07:59:31;;;;;;;17.55;9.40;;;1.00;99.90;;;;;;484755;245;27862;-70
2021/01/08 08:01:32;;;;;;;15.75;10.43;;;1.00;99.90;;;;;;484730;245;27519;-70
2021/01/08 08:03:33;;;;;;;16.87;10.20;;;1.10;99.90;;;;;;484798;245;27494;-70
2021/01/08 08:05:34;;;;;;;16.83;11.57;;;1.10;99.90;;;;;;484780;245;27419;-70
2021/01/08 08:07:36;;;;;;;15.40;10.40;;;1.10;99.90;;;;;;484746;245;27502;-71
2021/01/08 08:09:37;;;;;;;17.60;10.60;;;1.10;99.90;;;;;;484822;245;27390;-70
2021/01/08 08:11:38;;;;;;;13.30;9.65;;;1.10;99.90;;;;;;484747;245;27993;-71
2021/01/08 08:13:40;;;;;;;14.25;10.05;;;1.10;99.90;;;;;;484776;245;28668;-71
2021/01/08 08:15:41;;;;;;;13.80;10.07;;;1.10;99.90;;;;;;484813;245;27910;-70
2021/01/08 08:17:44;;;;;;;15.95;11.00;;;1.10;99.90;;;;;;484869;245;27422;-72
2021/01/08 08:19:43;;;;;;;15.35;10.60;;;1.10;99.90;;;;;;484762;245;27379;-70
2021/01/08 08:21:45;;;;;;;16.65;10.60;;;1.10;99.90;;;;;;484467;245;27839;-70
2021/01/08 08:23:46;;;;;;;14.35;10.77;;;1.00;99.90;;;;;;484366;245;27880;-71
2021/01/08 08:25:47;;;;;;;14.87;10.23;;;1.00;99.90;;;;;;484462;245;27511;-70
2021/01/08 08:27:48;;;;;;;18.10;11.10;;;1.00;99.90;;;;;;484866;245;27882;-71
2021/01/08 08:29:50;;;;;;;17.48;11.05;;;1.00;99.90;;;;;;484930;245;27862;-70
2021/01/08 08:31:51;;;;;;;15.32;10.20;;;1.00;99.90;;;;;;484872;245;27436;-70
2021/01/08 08:33:52;;;;;;;15.43;9.57;;;1.00;99.90;;;;;;484844;245;27411;-70
2021/01/08 08:35:53;;;;;;;21.52;11.57;;;1.00;99.90;;;;;;484754;245;27521;-70
2021/01/08 08:37:55;;;;;;;15.73;11.55;;;1.00;99.90;;;;;;484780;245;27760;-70
2021/01/08 08:39:56;;;;;;;16.70;11.07;;;0.90;99.90;;;;;;484793;245;27395;-70
2021/01/08 08:41:57;;;;;;;17.25;11.20;;;0.90;99.90;;;;;;484765;245;27402;-70
2021/01/08 08:43:58;;;;;;;16.58;10.30;;;1.00;99.90;;;;;;484766;245;27955;-71
2021/01/08 08:46:00;;;;;;;18.90;10.57;;;1.00;99.90;;;;;;484797;245;27902;-70
2021/01/08 08:48:01;;;;;;;17.10;10.95;;;1.00;99.90;;;;;;484814;245;27526;-71
2021/01/08 08:50:02;;;;;;;16.48;10.82;;;0.90;99.90;;;;;;484774;245;27432;-70
2021/01/08 08:52:05;;;;;;;14.52;10.65;;;0.90;99.90;;;;;;484767;245;27500;-71
2021/01/08 08:54:05;;;;;;;16.52;10.75;;;0.90;99.90;;;;;;484699;245;27411;-71
2021/01/08 08:56:06;;;;;;;16.25;11.02;;;1.00;99.90;;;;;;484763;245;27557;-70
2021/01/08 08:58:07;;;;;;;17.23;10.35;;;1.00;99.90;;;;;;484819;245;27571;-71
2021/01/08 09:00:08;;;;;;;14.05;10.23;;;1.00;99.90;;;;;;484788;245;27975;-70
2021/01/08 09:02:10;;;;;;;16.42;11.02;;;1.10;99.90;;;;;;484811;245;28004;-71
2021/01/08 09:04:12;;;;;;;16.90;11.25;;;1.10;99.90;;;;;;484777;245;27506;-70
2021/01/08 09:06:12;;;;;;;15.55;10.90;;;1.10;99.90;;;;;;484728;245;27428;-70
2021/01/08 09:08:13;;;;;;;18.48;11.75;;;1.00;99.90;;;;;;484786;245;27443;-71
2021/01/08 09:10:15;;;;;;;13.90;9.98;;;1.00;99.90;;;;;;484766;245;27428;-71
2021/01/08 09:12:16;;;;;;;13.02;10.05;;;1.10;99.90;;;;;;484774;245;27593;-71
2021/01/08 09:14:17;;;;;;;19.23;11.45;;;1.10;99.90;;;;;;484785;245;27427;-71
2021/01/08 09:16:18;;;;;;;17.92;11.30;;;1.10;99.90;;;;;;484780;245;27883;-70
2021/01/08 09:18:20;;;;;;;15.05;10.65;;;1.10;99.90;;;;;;484823;245;28057;-70
2021/01/08 09:20:21;;;;;;;17.75;10.90;;;1.20;99.90;;;;;;484785;245;27415;-71
2021/01/08 09:22:22;;;;;;;16.77;11.40;;;1.20;99.90;;;;;;484897;245;27454;-71
2021/01/08 09:24:23;;;;;;;16.85;11.05;;;1.20;99.90;;;;;;484834;245;27399;-70
2021/01/08 09:26:25;;;;;;;19.75;11.85;;;1.20;99.90;;;;;;484897;245;27478;-71
2021/01/08 09:28:26;;;;;;;17.67;11.73;;;1.20;99.90;;;;;;484830;245;27376;-70
2021/01/08 09:30:27;;;;;;;15.48;10.30;;;1.20;99.90;;;;;;484733;245;27927;-71
2021/01/08 09:32:29;;;;;;;19.10;11.65;;;1.20;99.90;;;;;;484728;245;27894;-70
2021/01/08 09:34:30;;;;;;;15.60;11.43;;;1.20;99.90;;;;;;484728;245;27997;-70
2021/01/08 09:36:31;;;;;;;18.70;11.95;;;1.20;99.90;;;;;;484748;245;27585;-71
2021/01/08 09:38:33;;;;;;;16.25;10.30;;;1.20;99.90;;;;;;484778;245;27419;-70
2021/01/08 09:40:34;;;;;;;15.82;10.65;;;1.30;99.90;;;;;;484758;245;27525;-70
2021/01/08 09:42:35;;;;;;;13.88;10.27;;;1.30;99.90;;;;;;484792;245;27519;-70
2021/01/08 09:44:36;;;;;;;16.90;11.80;;;1.40;99.90;;;;;;484798;245;27493;-70
2021/01/08 09:46:37;;;;;;;18.95;11.70;;;1.30;99.90;;;;;;484782;245;27885;-70
2021/01/08 09:48:39;;;;;;;18.98;11.43;;;1.30;99.90;;;;;;484791;245;27962;-70
2021/01/08 09:50:43;;;;;;;16.73;10.90;;;1.30;99.90;;;;;;484733;245;27427;-70
2021/01/08 09:52:41;;;;;;;17.48;11.55;;;1.20;99.90;;;;;;484584;245;27411;-71
2021/01/08 09:54:42;;;;;;;16.27;10.30;;;1.20;99.90;;;;;;484804;245;27428;-70
2021/01/08 09:56:44;;;;;;;16.85;11.10;;;1.30;99.90;;;;;;484818;245;27438;-70
2021/01/08 09:58:45;;;;;;;16.27;10.13;;;1.30;99.90;;;;;;484772;245;27415;-72
2021/01/08 10:00:46;;;;;;;17.65;12.15;;;1.10;99.90;;;;;;484870;245;27416;-70
2021/01/08 10:02:47;;;;;;;17.10;11.40;;;1.10;99.90;;;;;;484946;245;27990;-71
2021/01/08 10:04:49;;;;;;;16.48;10.40;;;1.10;99.90;;;;;;484955;245;27835;-70
2021/01/08 10:06:50;;;;;;;15.35;10.95;;;1.20;99.90;;;;;;484965;245;27415;-70
2021/01/08 10:08:51;;;;;;;17.02;11.43;;;1.20;99.90;;;;;;484965;245;27479;-70
2021/01/08 10:10:52;;;;;;;15.48;10.68;;;1.20;99.90;;;;;;484892;245;27493;-70
2021/01/08 10:12:54;;;;;;;17.87;10.45;;;1.20;99.90;;;;;;484906;245;27415;-70
2021/01/08 10:14:55;;;;;;;17.70;10.95;;;1.20;99.90;;;;;;484850;245;27377;-71
2021/01/08 10:16:56;;;;;;;17.33;11.07;;;1.30;99.90;;;;;;484820;245;27491;-71
2021/01/08 10:18:57;;;;;;;17.70;10.95;;;1.30;99.90;;;;;;484751;245;28676;-72
2021/01/08 10:20:59;;;;;;;16.95;10.73;;;1.30;99.90;;;;;;484775;245;27981;-70
2021/01/08 10:23:00;;;;;;;14.75;10.82;;;1.30;99.90;;;;;;484823;245;27407;-71
2021/01/08 10:25:01;;;;;;;15.85;11.12;;;1.30;99.90;;;;;;484793;245;27450;-70